createdAt,value
2023-03-30T00:00:28.859Z,3.10
2023-03-30T00:05:31.288Z,2.80
2023-03-30T00:10:33.168Z,3.00
2023-03-30T00:15:34.892Z,2.80
2023-03-30T00:20:43.124Z,2.80
2023-03-30T00:25:45.787Z,3.10
2023-03-30T00:30:48.573Z,3.80
2023-03-30T00:35:55.261Z,3.20
2023-03-30T00:41:00.901Z,2.20
2023-03-30T00:46:02.801Z,2.50
2023-03-30T00:51:07.559Z,2.90
2023-03-30T00:56:12.993Z,2.30
2023-03-30T01:01:25.599Z,2.30
2023-03-30T01:06:31.664Z,3.00
2023-03-30T01:11:33.532Z,2.70
2023-03-30T01:16:54.196Z,2.90
2023-03-30T01:22:29.820Z,3.30
2023-03-30T01:33:19.912Z,2.50
2023-03-30T01:38:42.085Z,2.70
2023-03-30T01:43:56.764Z,2.90
2023-03-30T01:49:12.492Z,3.30
2023-03-30T01:54:21.996Z,2.80
2023-03-30T01:59:34.590Z,2.50
2023-03-30T02:04:40.639Z,3.20
2023-03-30T02:09:45.808Z,2.50
2023-03-30T02:14:49.531Z,3.00
2023-03-30T02:19:52.545Z,3.00
2023-03-30T02:24:56.618Z,3.00
2023-03-30T02:29:58.352Z,3.50
2023-03-30T02:35:19.971Z,2.40
2023-03-30T02:40:51.361Z,2.50
2023-03-30T02:46:22.052Z,2.50
2023-03-30T02:51:41.718Z,3.50
2023-03-30T02:57:17.215Z,2.70
2023-03-30T03:02:29.982Z,2.50
2023-03-30T03:07:40.697Z,2.10
2023-03-30T03:12:44.987Z,3.40
2023-03-30T03:17:47.527Z,3.60
2023-03-30T03:22:49.990Z,3.70
2023-03-30T03:27:51.921Z,3.20
2023-03-30T03:32:57.402Z,3.50
2023-03-30T03:38:00.236Z,3.30
2023-03-30T03:43:02.073Z,3.20
2023-03-30T03:48:04.181Z,3.00
2023-03-30T03:53:13.295Z,2.30
2023-03-30T03:58:16.084Z,6.30
2023-03-30T04:03:17.863Z,4.30
2023-03-30T04:08:19.710Z,3.70
2023-03-30T04:13:21.711Z,3.40
2023-03-30T04:18:23.355Z,3.30
2023-03-30T04:23:49.295Z,3.40
2023-03-30T04:28:54.363Z,3.70
2023-03-30T04:34:16.765Z,3.30
2023-03-30T04:39:30.468Z,4.00
2023-03-30T04:44:38.296Z,5.20
2023-03-30T04:55:28.613Z,5.00
2023-03-30T05:00:56.140Z,4.40
2023-03-30T05:06:17.316Z,3.50
2023-03-30T05:11:30.878Z,3.20
2023-03-30T05:16:40.588Z,4.60
2023-03-30T05:22:01.540Z,4.60
2023-03-30T05:27:21.609Z,4.60
2023-03-30T05:32:43.665Z,5.20
2023-03-30T05:37:45.892Z,5.70
2023-03-30T05:42:56.904Z,4.20
2023-03-30T05:48:17.624Z,5.70
2023-03-30T05:53:37.854Z,4.80
2023-03-30T05:58:59.807Z,4.20
2023-03-30T06:04:31.517Z,5.60
2023-03-30T06:09:35.063Z,4.80
2023-03-30T06:14:41.423Z,5.20
2023-03-30T06:19:58.884Z,4.70
2023-03-30T06:25:02.021Z,6.30
2023-03-30T06:30:04.970Z,5.20
2023-03-30T06:35:07.645Z,4.90
2023-03-30T06:40:16.123Z,5.30
2023-03-30T06:45:21.056Z,5.10
2023-03-30T06:50:23.261Z,4.70
2023-03-30T06:55:33.141Z,6.60
2023-03-30T07:00:36.016Z,4.90
2023-03-30T07:05:58.682Z,9.40
2023-03-30T07:11:09.420Z,5.90
2023-03-30T07:16:13.782Z,5.30
2023-03-30T07:21:16.110Z,4.00
2023-03-30T07:26:18.104Z,3.90
2023-03-30T07:31:29.591Z,6.20
2023-03-30T07:36:32.053Z,4.20
2023-03-30T07:41:34.669Z,4.30
2023-03-30T07:46:36.874Z,4.50
2023-03-30T07:51:39.695Z,3.80
2023-03-30T07:56:53.735Z,4.60
2023-03-30T08:01:56.236Z,4.30
2023-03-30T08:07:18.666Z,3.80
2023-03-30T08:12:21.941Z,3.50
2023-03-30T08:17:23.966Z,3.10
2023-03-30T08:22:25.920Z,4.00
2023-03-30T08:27:27.846Z,3.90
2023-03-30T08:32:29.674Z,5.30
2023-03-30T08:37:31.475Z,3.40
2023-03-30T08:42:50.741Z,4.00
2023-03-30T08:47:54.228Z,4.70
2023-03-30T08:58:09.811Z,3.80
2023-03-30T09:03:22.929Z,3.10
2023-03-30T09:08:29.265Z,2.90
2023-03-30T09:13:37.992Z,3.20
2023-03-30T09:18:42.863Z,3.40
2023-03-30T09:23:44.653Z,2.60
2023-03-30T09:29:01.178Z,2.70
2023-03-30T09:34:08.693Z,2.40
2023-03-30T09:39:19.931Z,2.90
2023-03-30T09:44:33.821Z,2.50
2023-03-30T09:49:39.262Z,2.60
2023-03-30T09:54:41.811Z,2.30
2023-03-30T09:59:45.649Z,2.70
2023-03-30T10:04:53.630Z,3.50
2023-03-30T10:09:58.724Z,2.80
2023-03-30T10:15:04.349Z,3.00
2023-03-30T10:20:30.835Z,2.90
2023-03-30T10:25:33.903Z,2.90
2023-03-30T10:30:36.537Z,3.40
2023-03-30T10:35:38.816Z,2.70
2023-03-30T10:40:42.788Z,3.10
2023-03-30T10:45:48.607Z,3.20
2023-03-30T10:51:27.644Z,2.50
2023-03-30T10:56:38.090Z,2.80
2023-03-30T11:01:51.994Z,2.50
2023-03-30T11:06:57.960Z,2.90
2023-03-30T11:12:12.538Z,2.60
2023-03-30T11:17:26.821Z,2.50
2023-03-30T11:22:52.432Z,2.50
2023-03-30T11:28:12.137Z,2.20
2023-03-30T11:33:36.545Z,2.70
2023-03-30T11:38:51.964Z,2.70
2023-03-30T11:43:56.117Z,2.90
2023-03-30T11:49:08.255Z,3.10
2023-03-30T11:54:31.566Z,2.80
2023-03-30T11:59:43.931Z,3.30
2023-03-30T12:05:16.338Z,3.00
2023-03-30T12:10:32.351Z,2.80
2023-03-30T12:15:44.896Z,3.60
2023-03-30T12:21:16.289Z,5.00
2023-03-30T12:26:23.790Z,3.80
2023-03-30T12:31:51.714Z,4.00
2023-03-30T12:36:58.125Z,3.90
2023-03-30T12:42:07.857Z,3.70
2023-03-30T12:47:25.843Z,3.80
2023-03-30T12:52:27.566Z,3.30
2023-03-30T12:57:54.021Z,3.30
2023-03-30T13:03:07.832Z,3.80
2023-03-30T13:08:35.019Z,4.60
2023-03-30T13:13:50.983Z,3.40
2023-03-30T13:18:55.579Z,3.40
2023-03-30T13:24:26.291Z,3.70
2023-03-30T13:29:30.959Z,5.10
2023-03-30T13:35:06.980Z,5.80
2023-03-30T13:40:39.710Z,5.50
2023-03-30T13:46:13.062Z,5.20
2023-03-30T13:56:25.922Z,5.00
2023-03-30T14:01:28.423Z,4.90
2023-03-30T14:06:34.376Z,4.60
2023-03-30T14:11:44.877Z,4.10
2023-03-30T14:16:46.913Z,4.60
2023-03-30T14:21:49.456Z,4.20
2023-03-30T14:26:51.139Z,6.90
2023-03-30T14:32:06.674Z,7.00
2023-03-30T14:37:11.667Z,7.20
2023-03-30T14:42:17.611Z,7.80
2023-03-30T14:47:22.731Z,7.90
2023-03-30T14:52:32.743Z,6.80
2023-03-30T14:57:40.421Z,6.80
2023-03-30T15:02:43.070Z,5.20
2023-03-30T15:07:53.058Z,6.30
2023-03-30T15:17:59.905Z,6.00
2023-03-30T15:23:02.102Z,7.60
2023-03-30T15:28:08.168Z,7.40
2023-03-30T15:33:37.280Z,7.80
2023-03-30T15:38:51.450Z,8.50
2023-03-30T15:43:59.105Z,9.10
2023-03-30T15:49:01.025Z,9.90
2023-03-30T15:54:13.705Z,9.70
2023-03-30T15:59:18.727Z,8.40
2023-03-30T16:04:22.870Z,7.60
2023-03-30T16:09:24.983Z,9.70
2023-03-30T16:14:26.922Z,8.50
2023-03-30T16:19:28.636Z,9.20
2023-03-30T16:24:30.532Z,8.90
2023-03-30T16:29:45.651Z,8.90
2023-03-30T16:34:48.486Z,10.20
2023-03-30T16:39:50.288Z,9.50
2023-03-30T16:44:51.981Z,9.10
2023-03-30T16:49:54.083Z,10.70
2023-03-30T16:54:55.854Z,10.20
2023-03-30T16:59:57.553Z,10.00
2023-03-30T17:04:59.342Z,8.60
2023-03-30T17:10:01.373Z,8.60
2023-03-30T17:15:03.654Z,9.80
2023-03-30T17:20:23.760Z,11.60
2023-03-30T17:25:26.724Z,17.60
2023-03-30T17:30:31.187Z,17.00
2023-03-30T17:35:33.026Z,17.70
2023-03-30T17:40:39.309Z,42.30
2023-03-30T17:45:41.981Z,19.30
2023-03-30T17:50:46.894Z,16.90
2023-03-30T17:55:52.454Z,17.30
2023-03-30T18:00:54.570Z,18.20
2023-03-30T18:05:58.733Z,19.70
2023-03-30T18:11:01.454Z,22.80
2023-03-30T18:16:03.176Z,14.20
2023-03-30T18:21:06.782Z,16.20
2023-03-30T18:26:12.901Z,15.30
2023-03-30T18:31:14.909Z,14.00
2023-03-30T18:36:18.702Z,11.10
2023-03-30T18:41:20.582Z,9.70
2023-03-30T18:46:22.526Z,9.20
2023-03-30T18:51:24.521Z,9.40
2023-03-30T18:56:27.424Z,10.30
2023-03-30T19:01:29.221Z,10.10
2023-03-30T19:06:31.142Z,10.90
2023-03-30T19:11:32.871Z,10.60
2023-03-30T19:16:35.065Z,12.00
2023-03-30T19:21:36.956Z,11.80
2023-03-30T19:26:38.971Z,11.00
2023-03-30T19:31:40.798Z,10.10
2023-03-30T19:36:42.620Z,11.00
2023-03-30T19:41:44.437Z,13.50
2023-03-30T19:46:46.145Z,12.80
2023-03-30T19:51:47.969Z,11.50
2023-03-30T19:56:49.856Z,11.90
2023-03-30T20:01:51.673Z,14.90
2023-03-30T20:06:53.909Z,11.10
2023-03-30T20:11:56.709Z,13.00
2023-03-30T20:17:00.407Z,11.30
2023-03-30T20:22:02.372Z,12.60
2023-03-30T20:27:04.062Z,11.20
2023-03-30T20:32:05.881Z,12.30
2023-03-30T20:37:07.698Z,10.50
2023-03-30T20:42:09.987Z,10.70
2023-03-30T20:47:11.660Z,11.70
2023-03-30T20:52:13.800Z,12.80
2023-03-30T20:57:15.562Z,12.70
2023-03-30T21:02:17.615Z,12.60
2023-03-30T21:07:19.793Z,12.60
2023-03-30T21:12:22.618Z,11.30
2023-03-30T21:17:24.773Z,13.80
2023-03-30T21:22:26.630Z,13.80
2023-03-30T21:27:28.489Z,12.30
2023-03-30T21:32:31.581Z,12.50
2023-03-30T21:37:33.438Z,10.80
2023-03-30T21:42:36.393Z,12.10
2023-03-30T21:47:40.151Z,12.90
2023-03-30T21:52:44.758Z,13.00
2023-03-30T21:57:46.429Z,14.30
2023-03-30T22:02:48.243Z,13.10
2023-03-30T22:07:50.317Z,10.70
2023-03-30T22:12:52.074Z,11.30
2023-03-30T22:17:53.850Z,10.50
2023-03-30T22:22:56.827Z,13.00
2023-03-30T22:28:01.176Z,14.20
2023-03-30T22:33:03.069Z,12.30
2023-03-30T22:38:06.427Z,10.30
2023-03-30T22:43:09.725Z,11.80
2023-03-30T22:48:11.583Z,11.60
2023-03-30T22:53:13.283Z,14.70
2023-03-30T22:58:15.946Z,13.50
2023-03-30T23:03:18.074Z,13.40
2023-03-30T23:08:20.264Z,11.30
2023-03-30T23:13:29.365Z,12.60
2023-03-30T23:18:31.273Z,14.90
2023-03-30T23:23:37.158Z,13.90
2023-03-30T23:28:41.517Z,13.10
2023-03-30T23:33:46.479Z,12.20
2023-03-30T23:38:48.521Z,15.10
2023-03-30T23:43:51.632Z,15.10
2023-03-30T23:48:59.158Z,14.30
2023-03-30T23:54:07.155Z,12.80
2023-03-30T23:59:10.881Z,14.10
